Aérodrome :
LOGIN :

S'inscrire | Disclaimer

   EN    FR    IT 

 










Légende :    VFR   VFR Marginal   IFR   IFR Intensif   IFR Très Intensif
Visi : 
Plafond : 
>= 8 km
>= 3000ft
5 à 8 km
1000 à 3000 ft
1500m à 5 km
500 à 1000 ft
800 à 1500m
200 à 500 ft
< 800m
< 200 ft
Symboles :   Orages  Brouillard  Fortes neiges  Fortes précipitations  Vent > 20 kt
SIGMETs :   Divers  Orages  Givrage  Turbulence  Onde Orograph.  Cendres Volcan.






- Altitude de l'aérodrome : 670 ft
- Code IATA : MSQ


UMMS - Minsk - 2

DERNIER METAR :
  • 221313Z 31005MPS 9999 BKN016 03/01 Q1006 R31R/290048 R31L/////// NOSIG

METARs EXPIRÉS :
  • 221300Z 31006G09MPS 9999 BKN012 03/01 Q1005 R31R/290048 R31L/////// NOSIG
  • 221230Z 29005G09MPS 270V330 9999 BKN013CB 02/01 Q1005 R31R/290048 R31L/////// NOSIG
  • 221200Z 30009G14MPS 9999 BKN010CB 02/01 Q1005 R31R/290048 R31L/////// NOSIG
  • 221141Z 28006G11MPS 250V310 9999 BKN010CB 02/01 Q1005 R31R/290048 R31L/////// NOSIG
  • 221130Z 28009G14MPS 8000 -SHRA BKN007CB 02/01 Q1005 RESHRA R31R/290048 R31L/////// NOSIG
  • 221107Z 29006MPS 9999 BKN014 04/02 Q1005 R31R/290048 R31L/////// NOSIG
  • 221030Z 29007G10MPS 9999 BKN011 04/02 Q1006 R31R/290048 R31L/////// NOSIG

TAF TAF UMMS
Valide du 22 à 12h jusqu'au 23 à 12h UTC


221104Z 2212/2312 30007G12MPS 9999 BKN007 TX04/2213Z TNM01/2303Z
TEMPO 2212/2306 33014G19MPS 0500 +SHRASN OVC003 BKN015CB
TEMPO 2306/2312 27009G14MPS 1500 SHSNRA SCT003 BKN015CB



MET'MAP, la Météo Aéronautique d'un coup d'oeil ! - Copyright ORBIFLY Décembre 2007 - Disclaimer

ORBIFLY MET'MAP TEAM :

Programmation & Développement : Alexandra Zaïnal
Sur une idée originale de : Baudouin d'Aumeries
Assistance à la programmation : Marc-Olivier Méhu
Soutien technique & logistique : Manuel Goepfert

Contact : metmap@orbifly.com




SOURCES & CREDITS :

   NOAA